sensor_id;sensor_type;location;lat;lon;timestamp;P1;P2;P0
68198;PMS7003;55021;51.554;17.044;2023-05-10T00:10:25;26.00;20.50;12.50
68198;PMS7003;55021;51.554;17.044;2023-05-10T00:25:28;24.50;20.75;13.00
68198;PMS7003;55021;51.554;17.044;2023-05-10T00:40:31;21.00;20.00;13.00
68198;PMS7003;55021;51.554;17.044;2023-05-10T00:55:35;27.75;21.00;12.25
68198;PMS7003;55021;51.554;17.044;2023-05-10T01:10:38;22.00;22.00;12.25
68198;PMS7003;55021;51.554;17.044;2023-05-10T01:41:16;26.50;22.00;13.25
68198;PMS7003;55021;51.554;17.044;2023-05-10T01:56:24;27.25;24.25;17.00
68198;PMS7003;55021;51.554;17.044;2023-05-10T02:11:35;32.25;26.50;15.50
68198;PMS7003;55021;51.554;17.044;2023-05-10T02:26:44;26.50;25.00;16.00
68198;PMS7003;55021;51.554;17.044;2023-05-10T02:41:52;29.75;28.25;16.00
68198;PMS7003;55021;51.554;17.044;2023-05-10T03:13:29;28.00;25.00;14.75
68198;PMS7003;55021;51.554;17.044;2023-05-10T03:28:40;23.75;23.75;15.50
68198;PMS7003;55021;51.554;17.044;2023-05-10T03:43:43;34.25;29.75;18.50
68198;PMS7003;55021;51.554;17.044;2023-05-10T03:58:46;27.00;23.00;14.00
68198;PMS7003;55021;51.554;17.044;2023-05-10T04:13:50;19.75;19.25;12.50
68198;PMS7003;55021;51.554;17.044;2023-05-10T04:28:57;18.25;17.50;11.25
68198;PMS7003;55021;51.554;17.044;2023-05-10T04:44:00;21.75;19.00;10.50
68198;PMS7003;55021;51.554;17.044;2023-05-10T04:59:05;19.00;18.00;9.00
68198;PMS7003;55021;51.554;17.044;2023-05-10T05:14:10;19.50;16.75;10.25
68198;PMS7003;55021;51.554;17.044;2023-05-10T05:29:14;18.50;15.75;8.00
68198;PMS7003;55021;51.554;17.044;2023-05-10T05:44:18;15.75;14.25;8.00
68198;PMS7003;55021;51.554;17.044;2023-05-10T05:59:28;14.75;13.75;7.00
68198;PMS7003;55021;51.554;17.044;2023-05-10T06:14:31;12.25;11.75;7.00
68198;PMS7003;55021;51.554;17.044;2023-05-10T06:29:34;16.75;13.75;6.50
68198;PMS7003;55021;51.554;17.044;2023-05-10T06:44:36;13.50;13.25;7.00
68198;PMS7003;55021;51.554;17.044;2023-05-10T06:59:39;16.50;14.50;7.75
68198;PMS7003;55021;51.554;17.044;2023-05-10T07:14:41;12.75;12.00;7.00
68198;PMS7003;55021;51.554;17.044;2023-05-10T07:29:45;13.75;12.25;6.75
68198;PMS7003;55021;51.554;17.044;2023-05-10T07:44:50;14.50;13.50;7.00
68198;PMS7003;55021;51.554;17.044;2023-05-10T07:59:53;14.25;13.00;6.50
68198;PMS7003;55021;51.554;17.044;2023-05-10T08:14:56;14.00;13.00;7.00
68198;PMS7003;55021;51.554;17.044;2023-05-10T08:29:58;17.25;14.00;7.25
68198;PMS7003;55021;51.554;17.044;2023-05-10T08:45:02;12.50;10.75;6.00
68198;PMS7003;55021;51.554;17.044;2023-05-10T09:00:13;12.75;12.25;6.75
68198;PMS7003;55021;51.554;17.044;2023-05-10T09:15:17;14.25;12.50;8.00
68198;PMS7003;55021;51.554;17.044;2023-05-10T09:30:24;11.25;10.00;5.00
68198;PMS7003;55021;51.554;17.044;2023-05-10T09:45:28;11.50;11.50;6.00
68198;PMS7003;55021;51.554;17.044;2023-05-10T10:00:36;10.00;10.00;4.25
68198;PMS7003;55021;51.554;17.044;2023-05-10T10:15:40;13.75;12.75;7.50
68198;PMS7003;55021;51.554;17.044;2023-05-10T10:30:46;10.75;10.00;5.00
68198;PMS7003;55021;51.554;17.044;2023-05-10T11:01:23;10.00;9.00;4.00
68198;PMS7003;55021;51.554;17.044;2023-05-10T11:16:42;16.00;14.75;8.75
68198;PMS7003;55021;51.554;17.044;2023-05-10T11:31:51;11.50;11.00;7.00
68198;PMS7003;55021;51.554;17.044;2023-05-10T11:47:31;12.25;10.25;5.00
68198;PMS7003;55021;51.554;17.044;2023-05-10T12:02:34;11.50;9.75;5.00
68198;PMS7003;55021;51.554;17.044;2023-05-10T12:17:41;10.00;10.00;5.25
68198;PMS7003;55021;51.554;17.044;2023-05-10T12:32:49;12.50;11.75;6.50
68198;PMS7003;55021;51.554;17.044;2023-05-10T12:47:53;12.75;12.75;8.00
68198;PMS7003;55021;51.554;17.044;2023-05-10T13:02:56;12.50;12.50;7.00
68198;PMS7003;55021;51.554;17.044;2023-05-10T13:17:59;14.00;12.75;7.75
68198;PMS7003;55021;51.554;17.044;2023-05-10T13:33:01;11.00;11.00;6.25
68198;PMS7003;55021;51.554;17.044;2023-05-10T13:48:04;11.75;11.75;7.00
68198;PMS7003;55021;51.554;17.044;2023-05-10T14:03:07;13.00;12.00;7.00
68198;PMS7003;55021;51.554;17.044;2023-05-10T14:18:09;12.25;12.25;6.50
68198;PMS7003;55021;51.554;17.044;2023-05-10T14:33:11;12.00;11.75;5.75
68198;PMS7003;55021;51.554;17.044;2023-05-10T14:48:14;11.00;11.00;6.50
68198;PMS7003;55021;51.554;17.044;2023-05-10T15:03:16;15.00;12.25;8.00
68198;PMS7003;55021;51.554;17.044;2023-05-10T15:18:19;15.25;13.50;7.00
68198;PMS7003;55021;51.554;17.044;2023-05-10T15:33:22;15.00;14.00;7.00
68198;PMS7003;55021;51.554;17.044;2023-05-10T15:48:25;22.00;16.75;9.00
68198;PMS7003;55021;51.554;17.044;2023-05-10T16:03:27;12.00;12.00;6.25
68198;PMS7003;55021;51.554;17.044;2023-05-10T16:18:30;21.50;18.25;9.25
68198;PMS7003;55021;51.554;17.044;2023-05-10T16:33:32;19.75;15.50;8.50
68198;PMS7003;55021;51.554;17.044;2023-05-10T16:48:35;18.25;16.25;9.00
68198;PMS7003;55021;51.554;17.044;2023-05-10T17:03:37;16.50;14.25;9.00
68198;PMS7003;55021;51.554;17.044;2023-05-10T17:18:42;22.50;19.00;9.75
68198;PMS7003;55021;51.554;17.044;2023-05-10T17:33:45;15.75;14.50;8.75
68198;PMS7003;55021;51.554;17.044;2023-05-10T17:48:47;13.00;12.00;6.50
68198;PMS7003;55021;51.554;17.044;2023-05-10T18:03:51;13.75;13.75;9.00
68198;PMS7003;55021;51.554;17.044;2023-05-10T18:18:53;15.75;13.75;9.00
68198;PMS7003;55021;51.554;17.044;2023-05-10T18:33:57;17.50;15.50;9.75
68198;PMS7003;55021;51.554;17.044;2023-05-10T18:49:00;16.25;15.00;9.00
68198;PMS7003;55021;51.554;17.044;2023-05-10T19:04:05;17.75;14.75;9.00
68198;PMS7003;55021;51.554;17.044;2023-05-10T19:19:07;14.75;14.75;10.50
68198;PMS7003;55021;51.554;17.044;2023-05-10T19:34:10;18.25;15.75;9.50
68198;PMS7003;55021;51.554;17.044;2023-05-10T19:49:12;17.50;16.25;10.00
68198;PMS7003;55021;51.554;17.044;2023-05-10T20:04:15;20.00;18.75;11.75
68198;PMS7003;55021;51.554;17.044;2023-05-10T20:19:17;19.25;17.00;10.00
68198;PMS7003;55021;51.554;17.044;2023-05-10T20:34:20;20.25;18.00;11.00
68198;PMS7003;55021;51.554;17.044;2023-05-10T20:49:22;18.50;17.75;10.25
68198;PMS7003;55021;51.554;17.044;2023-05-10T21:04:25;16.75;16.00;10.00
68198;PMS7003;55021;51.554;17.044;2023-05-10T21:19:27;18.25;16.25;10.00
68198;PMS7003;55021;51.554;17.044;2023-05-10T21:34:30;18.50;17.00;10.00
68198;PMS7003;55021;51.554;17.044;2023-05-10T21:49:32;16.25;16.00;10.50
68198;PMS7003;55021;51.554;17.044;2023-05-10T22:04:34;16.00;15.75;10.25
68198;PMS7003;55021;51.554;17.044;2023-05-10T22:19:37;15.75;15.75;10.75
68198;PMS7003;55021;51.554;17.044;2023-05-10T22:34:39;18.75;15.00;9.00
68198;PMS7003;55021;51.554;17.044;2023-05-10T22:49:42;18.25;17.50;10.50
68198;PMS7003;55021;51.554;17.044;2023-05-10T23:04:45;20.50;18.25;9.25
68198;PMS7003;55021;51.554;17.044;2023-05-10T23:19:47;18.00;17.00;10.50
68198;PMS7003;55021;51.554;17.044;2023-05-10T23:34:50;21.75;19.25;11.75
68198;PMS7003;55021;51.554;17.044;2023-05-10T23:49:53;16.25;16.25;9.50
